Time;durP1;ratioP1;P1;durP2;ratioP2;P2;SDS_P1;SDS_P2;PMS_P1;PMS_P2;Temp;Humidity;BMP_temperature;BMP_pressure;BME280_temperature;BME280_humidity;BME280_pressure;Samples;Min_cycle;Max_cycle;Signal;HPM_P1;HPM_P2
2023/05/09 00:01:06;;;;;;;13.80;8.90;;;;;;;6.48;57.30;100549.81;105980;1252;62153;-75
2023/05/09 00:03:33;;;;;;;12.80;8.30;;;;;;;6.60;57.01;100548.68;105901;1252;74477;-71
2023/05/09 00:06:00;;;;;;;13.60;7.90;;;;;;;6.68;56.53;100545.73;105860;1253;67857;-70
2023/05/09 00:08:27;;;;;;;13.50;8.10;;;;;;;6.71;56.50;100544.27;105886;1254;72737;-71
2023/05/09 00:10:54;;;;;;;14.30;7.40;;;;;;;6.74;56.29;100547.88;105856;1254;62413;-69
2023/05/09 00:13:22;;;;;;;14.60;7.60;;;;;;;6.75;56.44;100550.19;105864;1253;62022;-71
2023/05/09 00:15:52;;;;;;;12.10;8.00;;;;;;;6.68;56.66;100549.52;105909;1253;75144;-71
2023/05/09 00:18:20;;;;;;;14.10;6.50;;;;;;;6.65;56.80;100549.89;105853;1254;67763;-70
2023/05/09 00:20:48;;;;;;;9.70;6.90;;;;;;;6.68;56.62;100549.27;105855;1254;73538;-70
2023/05/09 00:23:15;;;;;;;9.10;7.40;;;;;;;6.84;55.86;100550.52;105932;1253;62119;-73
2023/05/09 00:25:42;;;;;;;11.20;7.60;;;;;;;6.79;55.94;100549.00;105878;1253;62048;-72
2023/05/09 00:28:09;;;;;;;9.80;7.20;;;;;;;6.79;56.12;100548.38;106196;1255;75367;-71
2023/05/09 00:30:37;;;;;;;11.50;7.40;;;;;;;6.82;56.22;100551.55;106508;1257;68357;-71
2023/05/09 00:33:04;;;;;;;13.00;7.10;;;;;;;6.91;55.61;100548.46;105845;1253;71992;-72
2023/05/09 00:35:32;;;;;;;8.70;7.40;;;;;;;7.00;55.69;100547.84;105916;1255;62174;-77
2023/05/09 00:37:59;;;;;;;9.20;7.30;;;;;;;6.91;55.97;100548.34;105915;1253;62075;-69
2023/05/09 00:40:25;;;;;;;9.10;7.30;;;;;;;7.02;55.69;100553.10;105939;1254;74063;-71
2023/05/09 00:42:54;;;;;;;13.20;7.40;;;;;;;7.13;55.10;100548.09;105919;1254;68898;-71
2023/05/09 00:45:21;;;;;;;10.10;8.10;;;;;;;7.09;55.14;100552.11;105742;1254;73679;-73
2023/05/09 00:47:48;;;;;;;13.90;8.20;;;;;;;7.21;54.66;100551.08;105832;1256;62157;-69
2023/05/09 00:50:15;;;;;;;11.70;7.60;;;;;;;4.82;66.10;100545.19;105920;1254;62056;-70
2023/05/09 00:52:42;;;;;;;14.30;8.20;;;;;;;4.96;68.58;100546.38;105549;1259;75651;-70
2023/05/09 00:55:09;;;;;;;13.70;8.20;;;;;;;5.10;68.14;100544.02;105631;1257;69331;-69
2023/05/09 00:57:37;;;;;;;12.20;8.10;;;;;;;5.38;66.83;100544.27;105626;1257;73702;-69
2023/05/09 01:00:05;;;;;;;12.50;8.40;;;;;;;5.44;66.49;100544.98;105643;1254;62162;-70
2023/05/09 01:02:32;;;;;;;12.60;7.90;;;;;;;5.54;65.94;100545.90;105927;1256;62130;-71
2023/05/09 01:05:00;;;;;;;10.50;7.70;;;;;;;5.69;65.44;100546.75;105743;1256;75362;-70
2023/05/09 01:07:37;;;;;;;9.80;7.30;;;;;;;5.92;63.82;100552.30;105614;1253;68855;-71
2023/05/09 01:10:15;;;;;;;10.80;7.70;;;;;;;5.94;63.54;100553.41;105675;1253;72700;-72
2023/05/09 01:12:42;;;;;;;;;;;;;;;5.96;63.66;100553.92;105654;1253;62281;-72
2023/05/09 01:15:31;;;;;;;10.00;8.50;;;;;;;5.94;63.66;100551.87;105674;1253;62018;-71
2023/05/09 01:18:25;;;;;;;13.00;7.80;;;;;;;6.02;63.19;100552.80;105699;1257;74924;-72
2023/05/09 01:21:03;;;;;;;11.70;8.50;;;;;;;6.07;62.77;100556.55;105651;1253;68779;-70
2023/05/09 01:24:08;;;;;;;7.90;7.10;;;;;;;6.10;62.59;100554.59;105665;1257;70967;-68
2023/05/09 01:27:12;;;;;;;10.80;7.60;;;;;;;6.08;62.41;100555.40;105131;1264;62072;-70
2023/05/09 01:29:59;;;;;;;10.60;7.40;;;;;;;6.12;62.30;100556.77;105121;1263;62180;-72
2023/05/09 01:32:27;;;;;;;8.80;6.70;;;;;;;6.40;60.84;100553.94;105024;1264;75445;-74
2023/05/09 01:34:55;;;;;;;9.60;7.10;;;;;;;6.57;59.58;100553.52;105114;1260;68340;-75
2023/05/09 01:37:35;;;;;;;13.70;8.70;;;;;;;6.65;59.08;100559.41;105144;1265;71634;-70
2023/05/09 01:40:20;;;;;;;14.30;9.60;;;;;;;6.71;58.74;100556.05;105109;1267;62130;-70
2023/05/09 01:42:57;;;;;;;15.00;9.50;;;;;;;6.72;58.47;100555.52;105198;1262;62102;-71
2023/05/09 01:45:24;;;;;;;17.50;9.60;;;;;;;6.82;57.83;100558.48;105170;1264;75508;-69
2023/05/09 01:47:51;;;;;;;29.70;11.20;;;;;;;6.92;57.01;100556.46;105060;1260;69556;-75
2023/05/09 01:50:18;;;;;;;15.50;10.90;;;;;;;6.64;58.41;100557.15;105129;1260;73177;-68
2023/05/09 01:52:49;;;;;;;21.60;10.50;;;;;;;6.69;58.17;100552.39;105152;1259;62704;-71
2023/05/09 01:55:16;;;;;;;19.70;10.90;;;;;;;6.71;58.08;100555.17;105139;1267;62136;-70
2023/05/09 01:57:44;;;;;;;16.60;10.10;;;;;;;6.73;58.21;100547.80;105112;1259;74975;-71
2023/05/09 02:00:12;;;;;;;10.60;8.10;;;;;;;6.74;58.25;100555.64;103354;1270;1005770;-69
2023/05/09 02:02:39;;;;;;;15.50;8.50;;;;;;;6.77;57.99;100554.45;105116;1257;73825;-70
2023/05/09 02:05:08;;;;;;;13.90;8.70;;;;;;;6.61;58.89;100554.84;105488;1258;63067;-70
2023/05/09 02:07:35;;;;;;;16.60;9.40;;;;;;;6.54;59.59;100555.41;105567;1257;62622;-70
2023/05/09 02:10:02;;;;;;;13.80;8.60;;;;;;;6.69;58.73;100555.79;105533;1261;75461;-72
2023/05/09 02:12:29;;;;;;;18.40;10.00;;;;;;;6.85;57.67;100554.29;105610;1261;68065;-69
2023/05/09 02:14:56;;;;;;;15.70;8.60;;;;;;;6.91;57.40;100554.45;105523;1262;72228;-71
2023/05/09 02:17:23;;;;;;;16.70;9.50;;;;;;;6.83;57.68;100550.52;105521;1256;62143;-70
2023/05/09 02:19:49;;;;;;;22.50;9.60;;;;;;;6.96;56.99;100554.86;105514;1258;62492;-69
2023/05/09 02:22:16;;;;;;;17.50;7.90;;;;;;;7.00;56.84;100554.67;105553;1260;75836;-71
2023/05/09 02:24:46;;;;;;;16.10;7.80;;;;;;;7.05;56.42;100555.06;103314;1257;1003594;-70
2023/05/09 02:27:13;;;;;;;18.40;7.70;;;;;;;7.11;56.19;100555.39;105565;1257;72662;-70
2023/05/09 02:29:48;;;;;;;12.40;8.40;;;;;;;7.19;55.66;100556.58;105539;1257;62286;-72
2023/05/09 02:32:18;;;;;;;12.00;8.00;;;;;;;7.20;55.78;100555.97;105698;1254;62215;-75
2023/05/09 02:34:45;;;;;;;13.00;7.90;;;;;;;7.18;56.06;100558.44;105649;1257;74926;-68
2023/05/09 02:37:12;;;;;;;26.70;9.40;;;;;;;7.19;55.92;100555.16;105769;1253;67984;-70
2023/05/09 02:39:39;;;;;;;23.80;9.30;;;;;;;7.39;55.00;100557.05;105797;1257;72880;-68
2023/05/09 02:42:10;;;;;;;23.10;8.30;;;;;;;7.62;54.03;100556.89;105909;1253;62401;-69
2023/05/09 02:44:40;;;;;;;21.50;8.10;;;;;;;7.63;53.96;100560.30;105860;1255;61945;-70
2023/05/09 02:47:07;;;;;;;15.10;8.80;;;;;;;7.63;53.99;100557.73;105731;1256;75771;-68
2023/05/09 02:49:35;;;;;;;17.60;7.90;;;;;;;7.72;53.61;100559.52;105707;1253;69047;-70
2023/05/09 02:52:02;;;;;;;18.80;9.00;;;;;;;7.73;53.51;100562.56;105714;1257;72017;-70
2023/05/09 02:54:29;;;;;;;22.30;9.20;;;;;;;7.75;53.52;100563.70;104960;1254;1002865;-70
2023/05/09 02:56:56;;;;;;;16.30;8.60;;;;;;;7.70;53.72;100562.09;105620;1253;62026;-71
2023/05/09 02:59:24;;;;;;;14.60;8.50;;;;;;;7.68;53.88;100562.65;105712;1255;75540;-74
2023/05/09 03:01:52;;;;;;;;;;;;;;;7.82;53.53;100564.30;105654;1253;69877;-77
2023/05/09 03:04:19;;;;;;;18.90;8.80;;;;;;;7.96;53.11;100565.70;105718;1253;73589;-74
2023/05/09 03:06:45;;;;;;;20.30;9.10;;;;;;;8.00;52.79;100563.61;105628;1256;62130;-73
2023/05/09 03:09:13;;;;;;;19.80;9.20;;;;;;;8.00;52.87;100557.98;105662;1253;62146;-73
2023/05/09 03:11:40;;;;;;;20.10;8.50;;;;;;;8.11;52.48;100564.52;105699;1256;75175;-76
2023/05/09 03:14:07;;;;;;;17.70;8.10;;;;;;;8.11;52.61;100562.92;105666;1253;68223;-71
2023/05/09 03:16:34;;;;;;;23.00;9.20;;;;;;;8.26;51.93;100560.33;105718;1253;72921;-76
2023/05/09 03:19:02;;;;;;;15.20;9.00;;;;;;;8.18;52.42;100565.27;105625;1253;62166;-71
2023/05/09 03:21:30;;;;;;;15.40;8.20;;;;;;;8.23;52.18;100567.64;105594;1254;62028;-71
2023/05/09 03:23:58;;;;;;;15.90;9.10;;;;;;;8.34;51.75;100566.05;105647;1253;75907;-73
2023/05/09 03:26:25;;;;;;;13.70;8.70;;;;;;;8.46;51.47;100570.00;105932;1253;68920;-72
2023/05/09 03:28:53;;;;;;;13.60;8.30;;;;;;;8.57;51.08;100575.13;106440;1255;72440;-71
2023/05/09 03:31:20;;;;;;;15.90;8.30;;;;;;;8.75;50.49;100577.61;105952;1253;62247;-76
2023/05/09 03:33:47;;;;;;;12.70;7.90;;;;;;;9.07;49.72;100581.27;105932;1256;62040;-70
2023/05/09 03:36:14;;;;;;;14.60;8.00;;;;;;;9.31;48.81;100581.48;105903;1256;75577;-70
2023/05/09 03:38:42;;;;;;;16.90;8.40;;;;;;;9.44;48.23;100585.58;105158;1253;1015609;-71
2023/05/09 03:41:09;;;;;;;17.70;7.70;;;;;;;9.52;48.26;100588.67;105866;1252;73013;-72
2023/05/09 03:43:36;;;;;;;22.60;8.40;;;;;;;9.84;47.75;100589.73;105669;1253;62148;-70
2023/05/09 03:46:02;;;;;;;16.80;9.00;;;;;;;10.36;46.89;100594.77;105518;1256;62061;-69
2023/05/09 03:48:31;;;;;;;20.70;9.70;;;;;;;11.02;45.69;100597.45;105668;1259;75150;-70
2023/05/09 03:50:58;;;;;;;16.40;9.30;;;;;;;11.35;44.69;100599.10;105890;1253;67598;-70
2023/05/09 03:53:26;;;;;;;20.10;8.60;;;;;;;11.09;44.78;100600.41;105791;1253;73710;-69
2023/05/09 03:55:54;;;;;;;18.50;9.60;;;;;;;11.05;44.88;100598.21;105904;1252;63116;-71
2023/05/09 03:58:22;;;;;;;15.80;8.80;;;;;;;10.94;45.00;100596.02;105864;1253;61961;-71
2023/05/09 04:00:49;;;;;;;15.10;9.80;;;;;;;10.88;45.09;100599.80;105875;1252;75132;-73
2023/05/09 04:03:19;;;;;;;21.80;10.70;;;;;;;10.81;45.24;100599.45;105622;1253;69083;-73
2023/05/09 04:05:47;;;;;;;19.60;11.60;;;;;;;11.00;44.99;100604.23;104844;1259;1003341;-70
2023/05/09 04:08:22;;;;;;;29.50;13.20;;;;;;;10.78;45.50;100599.21;105687;1253;63150;-72
2023/05/09 04:10:49;;;;;;;35.00;15.90;;;;;;;10.93;45.41;100605.83;105904;1253;62061;-71
2023/05/09 04:13:16;;;;;;;50.10;20.00;;;;;;;11.08;44.82;100603.94;105809;1256;75501;-71
2023/05/09 04:15:44;;;;;;;51.60;21.80;;;;;;;11.07;44.95;100606.11;105665;1258;67715;-70
2023/05/09 04:18:12;;;;;;;45.00;18.80;;;;;;;11.05;45.04;100605.89;105650;1257;73964;-71
2023/05/09 04:20:38;;;;;;;61.40;23.60;;;;;;;11.30;44.66;100610.11;105854;1253;62230;-71
2023/05/09 04:23:05;;;;;;;48.50;20.30;;;;;;;11.39;44.54;100609.39;105682;1253;63156;-72
2023/05/09 04:25:33;;;;;;;42.60;16.70;;;;;;;11.50;44.31;100608.52;105853;1257;75389;-76
2023/05/09 04:28:01;;;;;;;31.00;15.60;;;;;;;11.40;44.34;100610.41;105902;1253;68374;-73
2023/05/09 04:30:28;;;;;;;26.20;11.50;;;;;;;11.56;44.34;100616.58;105777;1254;73365;-72
2023/05/09 04:32:55;;;;;;;18.30;9.90;;;;;;;11.70;43.88;100618.60;105905;1253;62053;-72
2023/05/09 04:35:22;;;;;;;15.70;8.70;;;;;;;11.96;43.63;100617.41;105802;1257;62037;-71
2023/05/09 04:37:50;;;;;;;17.60;8.50;;;;;;;12.18;43.33;100621.43;105886;1257;75432;-73
2023/05/09 04:40:17;;;;;;;16.70;8.00;;;;;;;12.25;43.33;100627.59;105648;1259;68835;-71
2023/05/09 04:42:56;;;;;;;13.40;8.10;;;;;;;12.30;42.97;100626.62;106057;1253;71914;-72
2023/05/09 04:45:25;;;;;;;13.30;8.80;;;;;;;12.41;42.74;100628.13;105647;1253;62156;-73
2023/05/09 04:47:52;;;;;;;11.60;7.70;;;;;;;12.59;42.07;100628.20;105676;1253;62034;-73
2023/05/09 04:50:19;;;;;;;12.30;7.10;;;;;;;12.50;41.87;100630.67;105884;1257;75636;-74
2023/05/09 04:52:46;;;;;;;10.10;6.60;;;;;;;12.38;41.67;100628.55;105987;1253;67755;-73
2023/05/09 04:55:14;;;;;;;10.00;7.50;;;;;;;12.50;41.66;100635.02;105756;1256;72145;-73
2023/05/09 04:57:43;;;;;;;20.60;8.20;;;;;;;11.79;42.51;100633.67;106040;1257;62442;-73
2023/05/09 05:00:11;;;;;;;13.30;7.40;;;;;;;11.45;43.62;100631.42;105964;1253;62654;-72
2023/05/09 05:02:39;;;;;;;8.20;6.80;;;;;;;11.86;43.12;100631.81;105775;1259;75190;-72
2023/05/09 05:05:06;;;;;;;11.80;7.40;;;;;;;12.00;42.96;100635.20;105948;1256;67843;-71
2023/05/09 05:07:41;;;;;;;10.40;7.20;;;;;;;12.15;42.68;100638.38;106054;1253;72743;-72
2023/05/09 05:10:09;;;;;;;10.90;7.60;;;;;;;12.53;42.31;100637.94;105690;1253;62197;-74
2023/05/09 05:12:37;;;;;;;10.60;7.10;;;;;;;12.65;42.12;100641.83;106076;1254;62011;-68
2023/05/09 05:15:05;;;;;;;14.20;7.00;;;;;;;12.64;41.99;100639.36;105742;1256;74488;-73
2023/05/09 05:17:32;;;;;;;10.80;7.40;;;;;;;12.84;41.83;100639.53;105641;1253;69512;-73
2023/05/09 05:20:00;;;;;;;10.70;6.60;;;;;;;13.10;41.44;100639.56;105660;1253;72826;-70
2023/05/09 05:22:27;;;;;;;9.40;6.40;;;;;;;13.20;41.05;100640.12;105623;1253;62148;-72
2023/05/09 05:24:54;;;;;;;15.00;6.90;;;;;;;13.00;41.47;100643.27;105033;1254;1002851;-70
2023/05/09 05:27:21;;;;;;;9.90;6.80;;;;;;;13.06;41.08;100639.82;105667;1257;76341;-72
2023/05/09 05:29:49;;;;;;;8.30;5.80;;;;;;;13.19;40.40;100640.84;105834;1254;69463;-72
2023/05/09 05:32:16;;;;;;;10.20;6.30;;;;;;;13.14;40.87;100642.27;105822;1254;71096;-72
2023/05/09 05:34:43;;;;;;;8.40;6.60;;;;;;;13.39;40.47;100645.79;105623;1254;62467;-72
2023/05/09 05:37:10;;;;;;;9.30;6.80;;;;;;;13.33;40.38;100643.20;106020;1253;63171;-74
2023/05/09 05:39:37;;;;;;;7.70;5.90;;;;;;;13.55;40.18;100645.01;105838;1254;75706;-70
2023/05/09 05:42:04;;;;;;;11.90;6.20;;;;;;;13.64;39.91;100649.13;105670;1253;69593;-72
2023/05/09 05:44:31;;;;;;;8.40;7.10;;;;;;;13.83;39.79;100648.33;105599;1254;72215;-71
2023/05/09 05:46:58;;;;;;;10.50;5.70;;;;;;;13.81;39.79;100645.32;105672;1253;63175;-71
2023/05/09 05:49:26;;;;;;;16.30;6.50;;;;;;;13.90;39.41;100648.05;106099;1256;62248;-70
2023/05/09 05:51:53;;;;;;;7.70;6.10;;;;;;;14.04;39.44;100648.23;105925;1256;76472;-71
2023/05/09 05:54:21;;;;;;;14.20;7.10;;;;;;;12.70;41.51;100641.80;105979;1256;68814;-72
2023/05/09 05:56:48;;;;;;;9.10;5.60;;;;;;;11.45;43.88;100632.23;105650;1254;73097;-71
2023/05/09 05:59:15;;;;;;;9.70;5.40;;;;;;;11.51;43.92;100635.98;105882;1254;62056;-78
2023/05/09 06:01:42;;;;;;;8.20;5.80;;;;;;;11.68;43.53;100636.27;105843;1253;62058;-73
2023/05/09 06:04:09;;;;;;;7.80;5.20;;;;;;;11.93;43.38;100636.30;105883;1253;73309;-72
2023/05/09 06:06:36;;;;;;;7.00;5.90;;;;;;;12.12;43.00;100639.08;105917;1253;69464;-74
2023/05/09 06:09:03;;;;;;;7.30;5.60;;;;;;;12.22;43.13;100637.06;105962;1253;73571;-71
2023/05/09 06:11:30;;;;;;;16.00;6.30;;;;;;;12.84;42.04;100644.55;105852;1253;62067;-71
2023/05/09 06:13:58;;;;;;;8.70;5.20;;;;;;;13.29;41.01;100641.69;105714;1254;62063;-73
2023/05/09 06:16:26;;;;;;;6.90;5.30;;;;;;;13.46;40.30;100645.79;105888;1256;74679;-74
2023/05/09 06:18:53;;;;;;;10.60;5.90;;;;;;;13.40;40.33;100644.28;105792;1253;68268;-73
2023/05/09 06:21:22;;;;;;;9.10;6.40;;;;;;;13.64;39.97;100649.40;105659;1259;72366;-74
2023/05/09 06:23:49;;;;;;;8.90;5.60;;;;;;;13.78;40.00;100646.31;105770;1255;62181;-74
2023/05/09 06:26:35;;;;;;;13.20;6.90;;;;;;;14.08;40.34;100647.52;107890;1253;61971;-71
2023/05/09 06:29:02;;;;;;;5.70;4.90;;;;;;;14.50;38.95;100651.20;107118;1253;75177;-73
2023/05/09 06:31:29;;;;;;;7.40;4.70;;;;;;;14.62;38.38;100651.70;105690;1261;67297;-73
2023/05/09 06:33:56;;;;;;;13.90;7.20;;;;;;;14.87;38.12;100655.59;105739;1253;72762;-71
2023/05/09 06:36:23;;;;;;;10.80;7.30;;;;;;;15.01;37.98;100651.84;105857;1253;62072;-72
2023/05/09 06:38:50;;;;;;;10.50;4.80;;;;;;;15.13;37.50;100649.78;105797;1254;62752;-70
2023/05/09 06:41:17;;;;;;;7.80;4.10;;;;;;;15.38;36.90;100649.16;106045;1256;75077;-72
2023/05/09 06:43:44;;;;;;;7.40;4.60;;;;;;;15.49;36.45;100642.05;105888;1254;68674;-72
2023/05/09 06:46:11;;;;;;;8.50;4.10;;;;;;;15.90;36.49;100647.11;105887;1253;71970;-76
2023/05/09 06:48:38;;;;;;;6.30;4.30;;;;;;;16.12;36.09;100642.39;105893;1253;62060;-71
2023/05/09 06:51:05;;;;;;;8.70;4.60;;;;;;;16.17;35.69;100644.86;105769;1253;62067;-71
2023/05/09 06:53:32;;;;;;;9.90;5.20;;;;;;;16.38;35.32;100651.33;105794;1255;76285;-73
2023/05/09 06:55:59;;;;;;;6.20;3.90;;;;;;;16.11;34.59;100650.09;105801;1253;68813;-72
2023/05/09 06:58:26;;;;;;;5.20;4.50;;;;;;;15.99;35.08;100642.60;105636;1253;72657;-72
2023/05/09 07:00:53;;;;;;;18.30;4.40;;;;;;;16.10;34.43;100643.64;105943;1253;62166;-72
2023/05/09 07:03:20;;;;;;;7.10;3.50;;;;;;;16.57;33.15;100648.69;105661;1253;62147;-71
2023/05/09 07:05:47;;;;;;;6.10;4.30;;;;;;;16.64;32.00;100646.92;105753;1257;76557;-75
2023/05/09 07:08:14;;;;;;;7.70;3.50;;;;;;;16.61;32.25;100648.42;105880;1253;68033;-75
2023/05/09 07:10:40;;;;;;;6.30;3.30;;;;;;;16.37;31.62;100648.36;105828;1257;70853;-73
2023/05/09 07:13:07;;;;;;;4.70;3.30;;;;;;;16.55;31.90;100646.41;105837;1253;62038;-74
2023/05/09 07:15:35;;;;;;;9.80;5.10;;;;;;;16.38;31.80;100644.94;105776;1254;61497;-74
2023/05/09 07:18:09;;;;;;;4.00;3.40;;;;;;;16.48;31.51;100641.67;105831;1256;76321;-73
2023/05/09 07:20:36;;;;;;;5.70;3.70;;;;;;;16.89;31.00;100643.62;105724;1253;68133;-73
2023/05/09 07:23:03;;;;;;;10.30;4.30;;;;;;;17.50;30.62;100645.11;105786;1257;71237;-72
2023/05/09 07:25:30;;;;;;;5.80;3.20;;;;;;;17.64;29.90;100642.98;105822;1253;62008;-73
2023/05/09 07:27:57;;;;;;;4.70;3.20;;;;;;;14.88;32.95;100627.16;105806;1253;62215;-74
2023/05/09 07:30:24;;;;;;;4.90;2.70;;;;;;;14.73;33.35;100626.79;105822;1257;74768;-72
2023/05/09 07:32:50;;;;;;;5.40;3.80;;;;;;;14.58;33.31;100623.34;105850;1253;68823;-78
2023/05/09 07:35:18;;;;;;;3.80;2.70;;;;;;;14.43;32.84;100615.66;105986;1254;73768;-72
2023/05/09 07:37:45;;;;;;;7.10;2.80;;;;;;;15.07;31.90;100620.25;105800;1254;62316;-74
2023/05/09 07:40:12;;;;;;;7.50;4.00;;;;;;;15.64;31.68;100616.27;106048;1256;62047;-75
2023/05/09 07:42:39;;;;;;;5.80;2.50;;;;;;;16.36;29.62;100619.14;105927;1256;75500;-73
2023/05/09 07:45:06;;;;;;;10.50;3.30;;;;;;;16.13;29.59;100619.71;106067;1253;69015;-73
2023/05/09 07:47:34;;;;;;;5.60;3.60;;;;;;;16.28;29.64;100621.02;105980;1253;73762;-74
2023/05/09 07:50:01;;;;;;;9.10;4.40;;;;;;;16.42;29.04;100613.69;105868;1253;62122;-71
2023/05/09 07:52:28;;;;;;;4.00;2.70;;;;;;;16.50;28.26;100608.66;105915;1258;61982;-75
2023/05/09 07:54:54;;;;;;;9.50;3.70;;;;;;;16.60;28.27;100615.30;105887;1257;75344;-73
2023/05/09 07:57:21;;;;;;;4.80;2.80;;;;;;;16.50;26.96;100612.79;105881;1253;68400;-73
2023/05/09 07:59:48;;;;;;;8.10;3.60;;;;;;;16.87;27.11;100611.95;105876;1253;72772;-73
2023/05/09 08:02:15;;;;;;;5.20;2.80;;;;;;;17.19;26.28;100612.67;105735;1253;62151;-73
2023/05/09 08:04:42;;;;;;;9.20;3.10;;;;;;;17.17;27.17;100611.05;105881;1253;63160;-75
2023/05/09 08:07:10;;;;;;;8.50;4.50;;;;;;;17.02;27.11;100617.72;105905;1256;75972;-73
2023/05/09 08:09:37;;;;;;;10.20;5.30;;;;;;;16.72;26.40;100616.14;105887;1253;68883;-74
2023/05/09 08:12:04;;;;;;;8.40;4.20;;;;;;;16.41;26.19;100614.54;105887;1253;72791;-77
2023/05/09 08:14:31;;;;;;;10.70;5.50;;;;;;;16.04;26.41;100611.05;105919;1253;62062;-71
2023/05/09 08:16:59;;;;;;;15.30;5.10;;;;;;;15.93;26.26;100602.44;105899;1257;62029;-75
2023/05/09 08:19:26;;;;;;;29.90;4.10;;;;;;;15.97;26.13;100609.34;105882;1253;75205;-73
2023/05/09 08:21:53;;;;;;;11.90;6.60;;;;;;;16.19;26.17;100609.11;105897;1253;69681;-74
2023/05/09 08:24:20;;;;;;;25.80;14.00;;;;;;;16.29;25.99;100612.61;105731;1257;70994;-74
2023/05/09 08:26:46;;;;;;;12.60;7.70;;;;;;;16.17;25.08;100613.98;105755;1253;62209;-75
2023/05/09 08:29:13;;;;;;;29.90;18.70;;;;;;;16.02;24.80;100611.10;105719;1253;62029;-76
2023/05/09 08:31:40;;;;;;;85.00;45.60;;;;;;;15.94;24.34;100611.33;105839;1257;76183;-72
2023/05/09 08:34:07;;;;;;;11.30;7.10;;;;;;;15.91;24.91;100604.33;105816;1253;69465;-74
2023/05/09 08:36:38;;;;;;;33.30;17.80;;;;;;;15.97;25.67;100599.54;105953;1256;73809;-74
2023/05/09 08:39:05;;;;;;;41.10;26.10;;;;;;;16.08;26.08;100597.31;106168;1254;62153;-73
2023/05/09 08:41:34;;;;;;;19.10;11.70;;;;;;;15.98;26.31;100595.92;106064;1253;62046;-72
2023/05/09 08:44:01;;;;;;;10.10;6.80;;;;;;;15.91;26.15;100593.29;105846;1257;75890;-74
2023/05/09 08:46:31;;;;;;;14.00;7.70;;;;;;;16.16;25.97;100590.85;105466;1254;67517;-72
2023/05/09 08:48:58;;;;;;;21.90;10.90;;;;;;;16.35;25.77;100595.08;106054;1256;71843;-74
2023/05/09 08:51:25;;;;;;;10.30;5.60;;;;;;;16.29;25.03;100596.03;105650;1254;62047;-72
2023/05/09 08:53:51;;;;;;;8.80;7.10;;;;;;;16.56;24.74;100602.13;105875;1252;62137;-74
2023/05/09 08:56:18;;;;;;;7.60;3.90;;;;;;;16.76;25.01;100594.48;105655;1260;75886;-74
2023/05/09 08:58:45;;;;;;;8.10;5.40;;;;;;;16.32;24.84;100597.60;105719;1254;68299;-74
2023/05/09 09:01:12;;;;;;;9.00;6.50;;;;;;;16.24;25.57;100597.21;105722;1262;72960;-80
2023/05/09 09:03:46;;;;;;;11.00;8.10;;;;;;;16.62;25.39;100596.45;105737;1253;139690;-75
2023/05/09 09:06:13;;;;;;;10.20;6.00;;;;;;;16.85;24.61;100594.21;105556;1261;62175;-72
2023/05/09 09:08:41;;;;;;;7.40;6.10;;;;;;;16.89;24.35;100592.48;105840;1255;74674;-73
2023/05/09 09:11:12;;;;;;;5.20;3.00;;;;;;;17.07;24.93;100595.43;105867;1253;67974;-72
2023/05/09 09:13:40;;;;;;;10.10;3.60;;;;;;;17.01;24.66;100589.90;105910;1253;71819;-71
2023/05/09 09:16:13;;;;;;;6.40;3.40;;;;;;;17.08;24.77;100591.02;105566;1253;61945;-71
2023/05/09 09:18:40;;;;;;;26.80;12.90;;;;;;;16.89;24.60;100592.10;105881;1253;62139;-72
2023/05/09 09:21:08;;;;;;;19.50;8.90;;;;;;;18.33;23.38;100594.80;106009;1255;75003;-77
2023/05/09 09:23:36;;;;;;;12.20;4.30;;;;;;;17.54;23.71;100596.23;105738;1253;69318;-74
2023/05/09 09:26:03;;;;;;;9.30;5.00;;;;;;;15.14;25.81;100583.54;105797;1253;71335;-73
2023/05/09 09:28:31;;;;;;;4.80;3.90;;;;;;;15.09;26.02;100581.80;107260;1253;60263;-74
2023/05/09 09:30:58;;;;;;;9.70;4.50;;;;;;;15.96;24.47;100582.42;107581;1252;62159;-74
2023/05/09 09:33:26;;;;;;;6.90;4.70;;;;;;;14.88;25.74;100580.38;106007;1253;74505;-73
2023/05/09 09:35:54;;;;;;;6.80;4.80;;;;;;;15.16;25.69;100577.86;106006;1253;69503;-80
2023/05/09 09:38:22;;;;;;;7.50;3.90;;;;;;;15.18;25.32;100585.71;105762;1253;73954;-72
2023/05/09 09:40:55;;;;;;;7.70;4.60;;;;;;;15.59;25.12;100572.58;105940;1253;63304;-73
2023/05/09 09:43:40;;;;;;;6.00;4.10;;;;;;;15.59;24.99;100572.42;105889;1253;62056;-76
2023/05/09 09:46:08;;;;;;;8.70;4.00;;;;;;;15.70;25.30;100569.36;105689;1257;73750;-75
2023/05/09 09:48:36;;;;;;;10.00;4.00;;;;;;;15.73;25.25;100570.34;105742;1259;67664;-72
2023/05/09 09:51:08;;;;;;;5.60;3.00;;;;;;;15.75;24.77;100574.29;105884;1257;73428;-74
2023/05/09 09:53:42;;;;;;;7.30;4.60;;;;;;;16.79;24.17;100572.61;105765;1257;62124;-74
2023/05/09 09:56:09;;;;;;;6.60;4.50;;;;;;;17.33;23.82;100577.12;105557;1257;62104;-72
2023/05/09 09:58:36;;;;;;;3.70;2.50;;;;;;;17.59;23.03;100565.94;105731;1259;75555;-75
2023/05/09 10:01:19;;;;;;;4.80;3.50;;;;;;;17.87;23.09;100572.27;105737;1257;67918;-74
2023/05/09 10:03:46;;;;;;;10.10;4.30;;;;;;;18.50;22.72;100573.59;105745;1257;72861;-73
2023/05/09 10:06:14;;;;;;;6.20;4.00;;;;;;;18.67;21.21;100569.90;105581;1262;62226;-74
2023/05/09 10:08:45;;;;;;;9.10;6.40;;;;;;;19.01;21.02;100578.58;105528;1257;62150;-75
2023/05/09 10:11:13;;;;;;;4.80;3.50;;;;;;;18.74;21.26;100579.21;105788;1257;74971;-75
2023/05/09 10:13:40;;;;;;;7.70;3.20;;;;;;;18.10;21.82;100578.00;105487;1257;67787;-73
2023/05/09 10:16:07;;;;;;;2.90;2.50;;;;;;;17.39;22.50;100575.43;105698;1257;72281;-74
2023/05/09 10:18:35;;;;;;;5.00;3.70;;;;;;;17.10;22.99;100576.05;105872;1253;63082;-74
2023/05/09 10:21:03;;;;;;;3.50;3.20;;;;;;;17.07;22.78;100574.48;105921;1253;62153;-75
2023/05/09 10:23:33;;;;;;;9.00;2.90;;;;;;;16.73;23.07;100573.48;105826;1260;75030;-75
2023/05/09 10:26:02;;;;;;;12.70;7.50;;;;;;;16.95;23.46;100569.43;106060;1256;68105;-77
2023/05/09 10:28:32;;;;;;;4.20;3.60;;;;;;;17.17;22.86;100567.64;105837;1256;72448;-76
2023/05/09 10:31:00;;;;;;;22.70;11.80;;;;;;;15.13;24.40;100554.80;105775;1253;62210;-76
2023/05/09 10:33:33;;;;;;;5.10;3.20;;;;;;;15.45;24.94;100546.14;105925;1254;61953;-74
2023/05/09 10:36:00;;;;;;;4.00;2.80;;;;;;;16.29;23.73;100545.69;105702;1253;75457;-75
2023/05/09 10:38:26;;;;;;;4.40;3.10;;;;;;;16.78;23.40;100547.48;105895;1253;67863;-73
2023/05/09 10:40:53;;;;;;;3.80;2.60;;;;;;;16.51;23.12;100553.92;105822;1253;71774;-72
2023/05/09 10:43:22;;;;;;;2.90;2.70;;;;;;;15.81;23.82;100548.73;105622;1253;62100;-74
2023/05/09 10:45:50;;;;;;;;;;;;;;;15.29;24.51;100535.11;105802;1253;62087;-75
2023/05/09 10:48:17;;;;;;;6.10;2.70;;;;;;;14.90;24.72;100537.29;106004;1257;75633;-73
2023/05/09 10:50:45;;;;;;;4.30;2.30;;;;;;;14.66;24.98;100532.21;105802;1253;67688;-76
2023/05/09 10:53:17;;;;;;;5.90;3.20;;;;;;;14.97;25.02;100535.06;105780;1253;72873;-74
2023/05/09 10:55:50;;;;;;;3.80;2.70;;;;;;;15.86;24.34;100534.86;105914;1253;62152;-74
2023/05/09 10:58:18;;;;;;;15.40;3.90;;;;;;;16.30;24.81;100530.14;105934;1257;62004;-75
2023/05/09 11:00:47;;;;;;;3.00;2.50;;;;;;;16.83;24.10;100526.80;105947;1253;74720;-73
2023/05/09 11:03:13;;;;;;;5.00;4.60;;;;;;;16.54;23.26;100525.41;105988;1255;68804;-76
2023/05/09 11:05:41;;;;;;;4.60;3.00;;;;;;;16.04;24.15;100531.11;105985;1257;72700;-75
2023/05/09 11:08:18;;;;;;;3.80;2.60;;;;;;;16.03;24.33;100527.76;105988;1253;62171;-75
2023/05/09 11:10:45;;;;;;;4.60;2.60;;;;;;;15.81;24.06;100520.69;106067;1253;62086;-76
2023/05/09 11:13:12;;;;;;;3.10;2.50;;;;;;;15.15;24.47;100514.73;105953;1256;74656;-78
2023/05/09 11:16:11;;;;;;;2.80;2.10;;;;;;;14.89;24.51;100516.08;105888;1253;69627;-74
2023/05/09 11:18:51;;;;;;;4.60;3.30;;;;;;;15.21;24.38;100520.84;105352;1259;74085;-73
2023/05/09 11:21:19;;;;;;;13.90;7.90;;;;;;;15.53;24.75;100511.02;105429;1260;62188;-73